sensor_id;sensor_type;location;lat;lon;timestamp;temperature;humidity
21104;DHT22;10710;53.398;-1.514;2022-11-15T00:02:01;12.30;99.90
21104;DHT22;10710;53.398;-1.514;2022-11-15T00:04:29;12.30;99.90
21104;DHT22;10710;53.398;-1.514;2022-11-15T00:06:55;12.20;99.90
21104;DHT22;10710;53.398;-1.514;2022-11-15T00:09:22;12.10;99.90
21104;DHT22;10710;53.398;-1.514;2022-11-15T00:11:48;12.00;99.90
21104;DHT22;10710;53.398;-1.514;2022-11-15T00:14:14;12.00;99.90
21104;DHT22;10710;53.398;-1.514;2022-11-15T00:16:40;11.90;99.90
21104;DHT22;10710;53.398;-1.514;2022-11-15T00:19:06;11.90;99.90
21104;DHT22;10710;53.398;-1.514;2022-11-15T00:21:32;11.80;99.90
21104;DHT22;10710;53.398;-1.514;2022-11-15T00:23:58;11.60;99.90
21104;DHT22;10710;53.398;-1.514;2022-11-15T00:26:25;11.60;99.90
21104;DHT22;10710;53.398;-1.514;2022-11-15T00:28:52;11.50;99.90
21104;DHT22;10710;53.398;-1.514;2022-11-15T00:31:18;11.40;99.90
21104;DHT22;10710;53.398;-1.514;2022-11-15T00:33:44;11.40;99.90
21104;DHT22;10710;53.398;-1.514;2022-11-15T00:36:11;11.30;99.90
21104;DHT22;10710;53.398;-1.514;2022-11-15T00:38:38;11.30;99.90
21104;DHT22;10710;53.398;-1.514;2022-11-15T00:41:05;11.20;99.90
21104;DHT22;10710;53.398;-1.514;2022-11-15T00:43:32;11.20;99.90
21104;DHT22;10710;53.398;-1.514;2022-11-15T00:45:58;11.10;99.90
21104;DHT22;10710;53.398;-1.514;2022-11-15T00:48:24;11.00;99.90
21104;DHT22;10710;53.398;-1.514;2022-11-15T00:50:50;11.00;99.90
21104;DHT22;10710;53.398;-1.514;2022-11-15T00:53:17;10.90;99.90
21104;DHT22;10710;53.398;-1.514;2022-11-15T00:55:43;10.90;99.90
21104;DHT22;10710;53.398;-1.514;2022-11-15T00:58:09;10.90;99.90
21104;DHT22;10710;53.398;-1.514;2022-11-15T01:00:35;10.90;99.90
21104;DHT22;10710;53.398;-1.514;2022-11-15T01:03:01;10.90;99.90
21104;DHT22;10710;53.398;-1.514;2022-11-15T01:05:28;10.80;99.90
21104;DHT22;10710;53.398;-1.514;2022-11-15T01:07:55;10.80;99.90
21104;DHT22;10710;53.398;-1.514;2022-11-15T01:10:22;10.80;99.90
21104;DHT22;10710;53.398;-1.514;2022-11-15T01:12:49;10.70;99.90
21104;DHT22;10710;53.398;-1.514;2022-11-15T01:15:15;10.70;99.90
21104;DHT22;10710;53.398;-1.514;2022-11-15T01:17:41;10.70;99.90
21104;DHT22;10710;53.398;-1.514;2022-11-15T01:20:08;10.60;99.90
21104;DHT22;10710;53.398;-1.514;2022-11-15T01:22:35;10.60;99.90
21104;DHT22;10710;53.398;-1.514;2022-11-15T01:25:02;10.50;99.90
21104;DHT22;10710;53.398;-1.514;2022-11-15T01:27:28;10.50;99.90
21104;DHT22;10710;53.398;-1.514;2022-11-15T01:29:54;10.40;99.90
21104;DHT22;10710;53.398;-1.514;2022-11-15T01:32:20;10.30;99.90
21104;DHT22;10710;53.398;-1.514;2022-11-15T01:34:46;10.30;99.90
21104;DHT22;10710;53.398;-1.514;2022-11-15T01:37:12;10.30;99.90
21104;DHT22;10710;53.398;-1.514;2022-11-15T01:39:38;10.20;99.90
21104;DHT22;10710;53.398;-1.514;2022-11-15T01:42:05;10.20;99.90
21104;DHT22;10710;53.398;-1.514;2022-11-15T01:47:03;10.20;99.90
21104;DHT22;10710;53.398;-1.514;2022-11-15T01:49:33;10.10;99.90
21104;DHT22;10710;53.398;-1.514;2022-11-15T01:52:01;10.00;99.90
21104;DHT22;10710;53.398;-1.514;2022-11-15T01:54:29;10.00;99.90
21104;DHT22;10710;53.398;-1.514;2022-11-15T01:57:00;10.00;99.90
21104;DHT22;10710;53.398;-1.514;2022-11-15T01:59:27;10.00;99.90
21104;DHT22;10710;53.398;-1.514;2022-11-15T02:01:53;10.00;99.90
21104;DHT22;10710;53.398;-1.514;2022-11-15T02:04:23;10.00;99.90
21104;DHT22;10710;53.398;-1.514;2022-11-15T02:06:51;10.00;99.90
21104;DHT22;10710;53.398;-1.514;2022-11-15T02:09:17;10.00;99.90
21104;DHT22;10710;53.398;-1.514;2022-11-15T02:11:44;10.10;99.90
21104;DHT22;10710;53.398;-1.514;2022-11-15T02:14:11;10.10;99.90
21104;DHT22;10710;53.398;-1.514;2022-11-15T02:32:25;10.10;99.90
21104;DHT22;10710;53.398;-1.514;2022-11-15T02:42:41;10.10;99.90
21104;DHT22;10710;53.398;-1.514;2022-11-15T02:45:32;10.10;99.90
21104;DHT22;10710;53.398;-1.514;2022-11-15T02:47:59;10.00;99.90
21104;DHT22;10710;53.398;-1.514;2022-11-15T02:50:29;10.10;99.90
21104;DHT22;10710;53.398;-1.514;2022-11-15T02:52:55;10.00;99.90
21104;DHT22;10710;53.398;-1.514;2022-11-15T02:55:28;10.00;99.90
21104;DHT22;10710;53.398;-1.514;2022-11-15T03:00:48;10.00;99.90
21104;DHT22;10710;53.398;-1.514;2022-11-15T03:03:29;10.10;99.90
21104;DHT22;10710;53.398;-1.514;2022-11-15T03:06:27;10.10;99.90
21104;DHT22;10710;53.398;-1.514;2022-11-15T03:09:05;10.10;99.90
21104;DHT22;10710;53.398;-1.514;2022-11-15T03:11:39;10.00;99.90
21104;DHT22;10710;53.398;-1.514;2022-11-15T03:16:40;10.10;99.90
21104;DHT22;10710;53.398;-1.514;2022-11-15T03:19:14;10.00;99.90
21104;DHT22;10710;53.398;-1.514;2022-11-15T03:21:44;10.00;99.90
21104;DHT22;10710;53.398;-1.514;2022-11-15T03:24:12;10.00;99.90
21104;DHT22;10710;53.398;-1.514;2022-11-15T03:26:41;10.00;99.90
21104;DHT22;10710;53.398;-1.514;2022-11-15T03:29:17;10.00;99.90
21104;DHT22;10710;53.398;-1.514;2022-11-15T03:31:51;10.00;99.90
21104;DHT22;10710;53.398;-1.514;2022-11-15T03:34:29;9.90;99.90
21104;DHT22;10710;53.398;-1.514;2022-11-15T03:36:56;9.90;99.90
21104;DHT22;10710;53.398;-1.514;2022-11-15T03:39:23;9.90;99.90
21104;DHT22;10710;53.398;-1.514;2022-11-15T03:45:22;10.10;99.90
21104;DHT22;10710;53.398;-1.514;2022-11-15T03:48:01;10.20;99.90
21104;DHT22;10710;53.398;-1.514;2022-11-15T03:50:28;10.30;99.90
21104;DHT22;10710;53.398;-1.514;2022-11-15T03:52:55;10.40;99.90
21104;DHT22;10710;53.398;-1.514;2022-11-15T03:55:22;10.40;99.90
21104;DHT22;10710;53.398;-1.514;2022-11-15T03:57:51;10.40;99.90
21104;DHT22;10710;53.398;-1.514;2022-11-15T04:00:19;10.50;99.90
21104;DHT22;10710;53.398;-1.514;2022-11-15T04:02:45;10.40;99.90
21104;DHT22;10710;53.398;-1.514;2022-11-15T04:05:11;10.60;99.90
21104;DHT22;10710;53.398;-1.514;2022-11-15T04:07:37;10.70;99.90
21104;DHT22;10710;53.398;-1.514;2022-11-15T04:10:03;10.70;99.90
21104;DHT22;10710;53.398;-1.514;2022-11-15T04:12:37;10.70;99.90
21104;DHT22;10710;53.398;-1.514;2022-11-15T04:17:41;10.80;99.90
21104;DHT22;10710;53.398;-1.514;2022-11-15T04:20:11;10.70;99.90
21104;DHT22;10710;53.398;-1.514;2022-11-15T04:22:57;10.80;99.90
21104;DHT22;10710;53.398;-1.514;2022-11-15T04:25:43;10.70;99.90
21104;DHT22;10710;53.398;-1.514;2022-11-15T04:28:10;10.80;99.90
21104;DHT22;10710;53.398;-1.514;2022-11-15T04:30:37;10.80;99.90
21104;DHT22;10710;53.398;-1.514;2022-11-15T04:33:03;10.80;99.90
21104;DHT22;10710;53.398;-1.514;2022-11-15T04:35:29;10.80;99.90
21104;DHT22;10710;53.398;-1.514;2022-11-15T04:37:57;10.80;99.90
21104;DHT22;10710;53.398;-1.514;2022-11-15T04:40:23;10.80;99.90
21104;DHT22;10710;53.398;-1.514;2022-11-15T04:42:49;10.80;99.90
21104;DHT22;10710;53.398;-1.514;2022-11-15T04:45:14;10.90;99.90
21104;DHT22;10710;53.398;-1.514;2022-11-15T04:47:44;10.80;99.90
21104;DHT22;10710;53.398;-1.514;2022-11-15T04:50:11;10.80;99.90
21104;DHT22;10710;53.398;-1.514;2022-11-15T04:52:44;10.80;99.90
21104;DHT22;10710;53.398;-1.514;2022-11-15T04:55:15;10.80;99.90
21104;DHT22;10710;53.398;-1.514;2022-11-15T04:57:41;10.80;99.90
21104;DHT22;10710;53.398;-1.514;2022-11-15T05:00:10;10.90;99.90
21104;DHT22;10710;53.398;-1.514;2022-11-15T05:02:36;10.90;99.90
21104;DHT22;10710;53.398;-1.514;2022-11-15T05:05:21;10.90;99.90
21104;DHT22;10710;53.398;-1.514;2022-11-15T05:07:47;11.00;99.90
21104;DHT22;10710;53.398;-1.514;2022-11-15T05:10:13;11.10;99.90
21104;DHT22;10710;53.398;-1.514;2022-11-15T05:12:39;11.10;99.90
21104;DHT22;10710;53.398;-1.514;2022-11-15T05:15:05;11.00;99.90
21104;DHT22;10710;53.398;-1.514;2022-11-15T05:17:31;10.90;99.90
21104;DHT22;10710;53.398;-1.514;2022-11-15T05:19:57;10.90;99.90
21104;DHT22;10710;53.398;-1.514;2022-11-15T05:22:23;10.90;99.90
21104;DHT22;10710;53.398;-1.514;2022-11-15T05:24:49;10.90;99.90
21104;DHT22;10710;53.398;-1.514;2022-11-15T05:27:15;10.90;99.90
21104;DHT22;10710;53.398;-1.514;2022-11-15T05:29:41;11.00;99.90
21104;DHT22;10710;53.398;-1.514;2022-11-15T05:32:08;11.00;99.90
21104;DHT22;10710;53.398;-1.514;2022-11-15T05:34:34;11.00;99.90
21104;DHT22;10710;53.398;-1.514;2022-11-15T05:37:01;11.00;99.90
21104;DHT22;10710;53.398;-1.514;2022-11-15T05:39:27;10.90;99.90
21104;DHT22;10710;53.398;-1.514;2022-11-15T05:41:56;11.00;99.90
21104;DHT22;10710;53.398;-1.514;2022-11-15T05:44:23;11.00;99.90
21104;DHT22;10710;53.398;-1.514;2022-11-15T05:46:53;11.00;99.90
21104;DHT22;10710;53.398;-1.514;2022-11-15T05:49:21;11.00;99.90
21104;DHT22;10710;53.398;-1.514;2022-11-15T05:51:49;11.00;99.90
21104;DHT22;10710;53.398;-1.514;2022-11-15T05:54:17;11.00;99.90
21104;DHT22;10710;53.398;-1.514;2022-11-15T05:56:45;10.90;99.90
21104;DHT22;10710;53.398;-1.514;2022-11-15T05:59:11;10.90;99.90
21104;DHT22;10710;53.398;-1.514;2022-11-15T06:01:38;10.90;99.90
21104;DHT22;10710;53.398;-1.514;2022-11-15T06:04:05;10.90;99.90
21104;DHT22;10710;53.398;-1.514;2022-11-15T06:06:31;10.90;99.90
21104;DHT22;10710;53.398;-1.514;2022-11-15T06:08:57;10.90;99.90
21104;DHT22;10710;53.398;-1.514;2022-11-15T06:11:23;10.90;99.90
21104;DHT22;10710;53.398;-1.514;2022-11-15T06:13:49;10.90;99.90
21104;DHT22;10710;53.398;-1.514;2022-11-15T06:16:15;11.00;99.90
21104;DHT22;10710;53.398;-1.514;2022-11-15T06:18:41;11.00;99.90
21104;DHT22;10710;53.398;-1.514;2022-11-15T06:21:08;11.00;99.90
21104;DHT22;10710;53.398;-1.514;2022-11-15T06:23:34;11.00;99.90
21104;DHT22;10710;53.398;-1.514;2022-11-15T06:26:01;11.00;99.90
21104;DHT22;10710;53.398;-1.514;2022-11-15T06:28:32;11.00;99.90
21104;DHT22;10710;53.398;-1.514;2022-11-15T06:31:06;11.00;99.90
21104;DHT22;10710;53.398;-1.514;2022-11-15T06:33:33;11.00;99.90
21104;DHT22;10710;53.398;-1.514;2022-11-15T06:36:06;11.00;99.90
21104;DHT22;10710;53.398;-1.514;2022-11-15T06:38:33;11.10;99.90
21104;DHT22;10710;53.398;-1.514;2022-11-15T06:41:04;11.10;99.90
21104;DHT22;10710;53.398;-1.514;2022-11-15T06:43:30;11.00;99.90
21104;DHT22;10710;53.398;-1.514;2022-11-15T06:45:58;11.00;99.90
21104;DHT22;10710;53.398;-1.514;2022-11-15T06:48:26;11.00;99.90
21104;DHT22;10710;53.398;-1.514;2022-11-15T06:50:53;11.00;99.90
21104;DHT22;10710;53.398;-1.514;2022-11-15T06:53:19;11.00;99.90
21104;DHT22;10710;53.398;-1.514;2022-11-15T06:55:45;11.00;99.90
21104;DHT22;10710;53.398;-1.514;2022-11-15T06:58:11;11.00;99.90
21104;DHT22;10710;53.398;-1.514;2022-11-15T07:00:36;11.10;99.90
21104;DHT22;10710;53.398;-1.514;2022-11-15T07:03:03;11.10;99.90
21104;DHT22;10710;53.398;-1.514;2022-11-15T07:05:29;11.00;99.90
21104;DHT22;10710;53.398;-1.514;2022-11-15T07:07:56;11.00;99.90
21104;DHT22;10710;53.398;-1.514;2022-11-15T07:10:23;11.10;99.90
21104;DHT22;10710;53.398;-1.514;2022-11-15T07:12:50;11.00;99.90
21104;DHT22;10710;53.398;-1.514;2022-11-15T07:15:19;11.10;99.90
21104;DHT22;10710;53.398;-1.514;2022-11-15T07:17:45;11.00;99.90
21104;DHT22;10710;53.398;-1.514;2022-11-15T07:20:12;11.00;99.90
21104;DHT22;10710;53.398;-1.514;2022-11-15T07:22:39;11.00;99.90
21104;DHT22;10710;53.398;-1.514;2022-11-15T07:25:06;11.00;99.90
21104;DHT22;10710;53.398;-1.514;2022-11-15T07:27:32;11.00;99.90
21104;DHT22;10710;53.398;-1.514;2022-11-15T07:29:59;11.00;99.90
21104;DHT22;10710;53.398;-1.514;2022-11-15T07:32:25;11.00;99.90
21104;DHT22;10710;53.398;-1.514;2022-11-15T07:34:51;11.10;99.90
21104;DHT22;10710;53.398;-1.514;2022-11-15T07:37:16;11.10;99.90
21104;DHT22;10710;53.398;-1.514;2022-11-15T07:39:43;11.20;99.90
21104;DHT22;10710;53.398;-1.514;2022-11-15T07:42:09;11.20;99.90
21104;DHT22;10710;53.398;-1.514;2022-11-15T07:44:53;11.10;99.90
21104;DHT22;10710;53.398;-1.514;2022-11-15T07:47:19;11.10;99.90
21104;DHT22;10710;53.398;-1.514;2022-11-15T07:49:46;11.20;99.90
21104;DHT22;10710;53.398;-1.514;2022-11-15T07:52:13;11.30;99.90
21104;DHT22;10710;53.398;-1.514;2022-11-15T07:54:39;11.30;99.90
21104;DHT22;10710;53.398;-1.514;2022-11-15T07:57:05;11.20;99.90
21104;DHT22;10710;53.398;-1.514;2022-11-15T07:59:33;11.30;99.90
21104;DHT22;10710;53.398;-1.514;2022-11-15T08:02:00;11.30;99.90
21104;DHT22;10710;53.398;-1.514;2022-11-15T08:04:26;11.40;99.90
21104;DHT22;10710;53.398;-1.514;2022-11-15T08:06:52;11.40;99.90
21104;DHT22;10710;53.398;-1.514;2022-11-15T08:09:18;11.30;99.90
21104;DHT22;10710;53.398;-1.514;2022-11-15T08:11:44;11.40;99.90
21104;DHT22;10710;53.398;-1.514;2022-11-15T08:14:10;11.40;99.90
21104;DHT22;10710;53.398;-1.514;2022-11-15T08:16:36;11.40;99.90
21104;DHT22;10710;53.398;-1.514;2022-11-15T08:19:02;11.40;99.90
21104;DHT22;10710;53.398;-1.514;2022-11-15T08:21:28;11.40;99.90
21104;DHT22;10710;53.398;-1.514;2022-11-15T08:23:54;11.40;99.90
21104;DHT22;10710;53.398;-1.514;2022-11-15T08:26:23;11.40;99.90
21104;DHT22;10710;53.398;-1.514;2022-11-15T08:28:52;11.50;99.90
21104;DHT22;10710;53.398;-1.514;2022-11-15T08:31:19;11.50;99.90
21104;DHT22;10710;53.398;-1.514;2022-11-15T08:33:45;11.50;99.90
21104;DHT22;10710;53.398;-1.514;2022-11-15T08:36:15;11.60;99.90
21104;DHT22;10710;53.398;-1.514;2022-11-15T08:38:41;11.60;99.90
21104;DHT22;10710;53.398;-1.514;2022-11-15T08:41:33;11.70;99.90
21104;DHT22;10710;53.398;-1.514;2022-11-15T08:43:57;11.70;99.90
21104;DHT22;10710;53.398;-1.514;2022-11-15T08:46:23;11.70;99.90
21104;DHT22;10710;53.398;-1.514;2022-11-15T08:48:49;11.70;99.90
21104;DHT22;10710;53.398;-1.514;2022-11-15T08:51:16;11.70;99.90
21104;DHT22;10710;53.398;-1.514;2022-11-15T08:53:42;11.80;99.90
21104;DHT22;10710;53.398;-1.514;2022-11-15T08:56:10;11.70;99.90
21104;DHT22;10710;53.398;-1.514;2022-11-15T08:58:36;11.70;99.90
21104;DHT22;10710;53.398;-1.514;2022-11-15T09:01:03;11.80;99.90
21104;DHT22;10710;53.398;-1.514;2022-11-15T09:03:30;11.80;99.90
21104;DHT22;10710;53.398;-1.514;2022-11-15T09:05:57;11.80;99.90
21104;DHT22;10710;53.398;-1.514;2022-11-15T09:08:33;11.90;99.90
21104;DHT22;10710;53.398;-1.514;2022-11-15T09:11:06;11.90;99.90
21104;DHT22;10710;53.398;-1.514;2022-11-15T09:13:33;11.80;99.90
21104;DHT22;10710;53.398;-1.514;2022-11-15T09:16:00;11.80;99.90
21104;DHT22;10710;53.398;-1.514;2022-11-15T09:18:27;11.90;99.90
21104;DHT22;10710;53.398;-1.514;2022-11-15T09:20:57;11.90;99.90
21104;DHT22;10710;53.398;-1.514;2022-11-15T09:23:24;11.90;99.90
21104;DHT22;10710;53.398;-1.514;2022-11-15T09:25:50;12.00;99.90
21104;DHT22;10710;53.398;-1.514;2022-11-15T09:28:17;11.90;99.90
21104;DHT22;10710;53.398;-1.514;2022-11-15T09:30:42;11.90;99.90
21104;DHT22;10710;53.398;-1.514;2022-11-15T09:33:09;12.00;99.90
21104;DHT22;10710;53.398;-1.514;2022-11-15T09:35:36;12.00;99.90
21104;DHT22;10710;53.398;-1.514;2022-11-15T09:38:02;12.00;99.90
21104;DHT22;10710;53.398;-1.514;2022-11-15T09:40:32;12.00;99.90
21104;DHT22;10710;53.398;-1.514;2022-11-15T09:43:37;12.00;99.90
21104;DHT22;10710;53.398;-1.514;2022-11-15T09:49:00;12.00;99.90
21104;DHT22;10710;53.398;-1.514;2022-11-15T09:54:09;12.10;99.90
21104;DHT22;10710;53.398;-1.514;2022-11-15T09:56:40;12.10;99.90
21104;DHT22;10710;53.398;-1.514;2022-11-15T10:04:39;12.00;99.90
21104;DHT22;10710;53.398;-1.514;2022-11-15T10:08:11;12.10;99.90
21104;DHT22;10710;53.398;-1.514;2022-11-15T10:10:15;12.00;99.90
21104;DHT22;10710;53.398;-1.514;2022-11-15T10:12:46;12.10;99.90
21104;DHT22;10710;53.398;-1.514;2022-11-15T10:15:15;12.20;99.90
21104;DHT22;10710;53.398;-1.514;2022-11-15T10:20:33;12.10;99.90
21104;DHT22;10710;53.398;-1.514;2022-11-15T10:23:06;12.10;99.90
21104;DHT22;10710;53.398;-1.514;2022-11-15T10:25:37;12.10;99.90
21104;DHT22;10710;53.398;-1.514;2022-11-15T10:28:13;12.30;99.90
21104;DHT22;10710;53.398;-1.514;2022-11-15T10:30:42;12.30;99.90
21104;DHT22;10710;53.398;-1.514;2022-11-15T10:33:35;12.20;99.90
21104;DHT22;10710;53.398;-1.514;2022-11-15T10:36:17;12.20;99.90
21104;DHT22;10710;53.398;-1.514;2022-11-15T10:46:34;12.20;99.90
21104;DHT22;10710;53.398;-1.514;2022-11-15T10:51:54;12.30;99.90
21104;DHT22;10710;53.398;-1.514;2022-11-15T10:54:42;12.40;99.90
21104;DHT22;10710;53.398;-1.514;2022-11-15T10:57:32;12.40;99.90
21104;DHT22;10710;53.398;-1.514;2022-11-15T11:00:06;12.40;99.90
21104;DHT22;10710;53.398;-1.514;2022-11-15T11:02:42;12.50;99.90
21104;DHT22;10710;53.398;-1.514;2022-11-15T11:05:43;12.40;99.90
21104;DHT22;10710;53.398;-1.514;2022-11-15T11:10:55;12.40;99.90
21104;DHT22;10710;53.398;-1.514;2022-11-15T11:13:28;12.40;99.90
21104;DHT22;10710;53.398;-1.514;2022-11-15T11:16:17;12.50;99.90
21104;DHT22;10710;53.398;-1.514;2022-11-15T11:30:09;12.50;99.90
21104;DHT22;10710;53.398;-1.514;2022-11-15T11:35:32;12.60;99.90
21104;DHT22;10710;53.398;-1.514;2022-11-15T11:38:23;12.60;99.90
21104;DHT22;10710;53.398;-1.514;2022-11-15T11:40:59;12.60;99.90
21104;DHT22;10710;53.398;-1.514;2022-11-15T11:43:34;12.50;99.90
21104;DHT22;10710;53.398;-1.514;2022-11-15T11:48:58;12.60;99.90
21104;DHT22;10710;53.398;-1.514;2022-11-15T11:51:51;12.70;99.90
21104;DHT22;10710;53.398;-1.514;2022-11-15T11:56:49;12.60;99.90
21104;DHT22;10710;53.398;-1.514;2022-11-15T11:59:39;12.70;99.90
21104;DHT22;10710;53.398;-1.514;2022-11-15T12:02:48;12.70;99.90
21104;DHT22;10710;53.398;-1.514;2022-11-15T12:05:11;12.80;99.90
21104;DHT22;10710;53.398;-1.514;2022-11-15T12:07:40;12.70;99.90
21104;DHT22;10710;53.398;-1.514;2022-11-15T12:10:19;12.80;99.90
21104;DHT22;10710;53.398;-1.514;2022-11-15T12:15:27;12.80;99.90
21104;DHT22;10710;53.398;-1.514;2022-11-15T12:17:55;12.80;99.90
21104;DHT22;10710;53.398;-1.514;2022-11-15T12:20:27;12.80;99.90
21104;DHT22;10710;53.398;-1.514;2022-11-15T12:25:39;12.90;99.90
21104;DHT22;10710;53.398;-1.514;2022-11-15T12:31:22;12.90;99.90
21104;DHT22;10710;53.398;-1.514;2022-11-15T12:33:48;12.90;99.90
21104;DHT22;10710;53.398;-1.514;2022-11-15T12:39:02;12.90;99.90
21104;DHT22;10710;53.398;-1.514;2022-11-15T12:41:33;13.00;99.90
21104;DHT22;10710;53.398;-1.514;2022-11-15T12:44:00;13.00;99.90
21104;DHT22;10710;53.398;-1.514;2022-11-15T12:49:10;13.00;99.90
21104;DHT22;10710;53.398;-1.514;2022-11-15T13:00:36;13.00;99.90
21104;DHT22;10710;53.398;-1.514;2022-11-15T13:03:22;13.10;99.90
21104;DHT22;10710;53.398;-1.514;2022-11-15T13:05:56;13.10;99.90
21104;DHT22;10710;53.398;-1.514;2022-11-15T13:08:37;13.10;99.90
21104;DHT22;10710;53.398;-1.514;2022-11-15T13:11:56;13.00;99.90
21104;DHT22;10710;53.398;-1.514;2022-11-15T13:22:41;13.10;99.90
21104;DHT22;10710;53.398;-1.514;2022-11-15T13:27:49;13.10;99.90
21104;DHT22;10710;53.398;-1.514;2022-11-15T13:30:26;13.20;99.90
21104;DHT22;10710;53.398;-1.514;2022-11-15T13:32:54;13.20;99.90
21104;DHT22;10710;53.398;-1.514;2022-11-15T13:35:23;13.20;99.90
21104;DHT22;10710;53.398;-1.514;2022-11-15T13:40:26;13.30;99.90
21104;DHT22;10710;53.398;-1.514;2022-11-15T13:42:55;13.20;99.90
21104;DHT22;10710;53.398;-1.514;2022-11-15T13:45:21;13.30;99.90
21104;DHT22;10710;53.398;-1.514;2022-11-15T13:47:56;13.30;99.90
21104;DHT22;10710;53.398;-1.514;2022-11-15T13:50:27;13.30;99.90
21104;DHT22;10710;53.398;-1.514;2022-11-15T13:52:57;13.30;99.90
21104;DHT22;10710;53.398;-1.514;2022-11-15T13:55:25;13.30;99.90
21104;DHT22;10710;53.398;-1.514;2022-11-15T13:58:00;13.30;99.90
21104;DHT22;10710;53.398;-1.514;2022-11-15T14:00:41;13.40;99.90
21104;DHT22;10710;53.398;-1.514;2022-11-15T14:03:28;13.40;99.90
21104;DHT22;10710;53.398;-1.514;2022-11-15T14:06:14;13.40;99.90
21104;DHT22;10710;53.398;-1.514;2022-11-15T14:08:57;13.50;99.90
21104;DHT22;10710;53.398;-1.514;2022-11-15T14:11:24;13.50;99.90
21104;DHT22;10710;53.398;-1.514;2022-11-15T14:14:13;13.50;99.90
21104;DHT22;10710;53.398;-1.514;2022-11-15T14:19:22;13.60;99.90
21104;DHT22;10710;53.398;-1.514;2022-11-15T14:22:17;13.60;99.90
21104;DHT22;10710;53.398;-1.514;2022-11-15T14:25:07;13.60;99.90
21104;DHT22;10710;53.398;-1.514;2022-11-15T14:27:33;13.50;99.90
21104;DHT22;10710;53.398;-1.514;2022-11-15T14:29:59;13.50;99.90
21104;DHT22;10710;53.398;-1.514;2022-11-15T14:32:28;13.60;99.90
21104;DHT22;10710;53.398;-1.514;2022-11-15T14:35:01;13.60;99.90
21104;DHT22;10710;53.398;-1.514;2022-11-15T14:37:29;13.60;99.90
21104;DHT22;10710;53.398;-1.514;2022-11-15T14:39:58;13.60;99.90
21104;DHT22;10710;53.398;-1.514;2022-11-15T14:42:25;13.60;99.90
21104;DHT22;10710;53.398;-1.514;2022-11-15T14:44:51;13.60;99.90
21104;DHT22;10710;53.398;-1.514;2022-11-15T14:47:17;13.60;99.90
21104;DHT22;10710;53.398;-1.514;2022-11-15T14:49:44;13.60;99.90
21104;DHT22;10710;53.398;-1.514;2022-11-15T14:52:32;13.50;99.90
21104;DHT22;10710;53.398;-1.514;2022-11-15T14:55:04;13.50;99.90
21104;DHT22;10710;53.398;-1.514;2022-11-15T14:57:35;13.50;99.90
21104;DHT22;10710;53.398;-1.514;2022-11-15T15:00:04;13.60;99.90
21104;DHT22;10710;53.398;-1.514;2022-11-15T15:02:31;13.60;99.90
21104;DHT22;10710;53.398;-1.514;2022-11-15T15:04:58;13.60;99.90
21104;DHT22;10710;53.398;-1.514;2022-11-15T15:07:26;13.60;99.90
21104;DHT22;10710;53.398;-1.514;2022-11-15T15:09:53;13.50;99.90
21104;DHT22;10710;53.398;-1.514;2022-11-15T15:12:21;13.50;99.90
21104;DHT22;10710;53.398;-1.514;2022-11-15T15:14:49;13.50;99.90
21104;DHT22;10710;53.398;-1.514;2022-11-15T15:17:16;13.40;99.90
21104;DHT22;10710;53.398;-1.514;2022-11-15T15:19:42;13.10;99.90
21104;DHT22;10710;53.398;-1.514;2022-11-15T15:22:16;12.90;99.90
21104;DHT22;10710;53.398;-1.514;2022-11-15T15:24:44;12.80;99.90
21104;DHT22;10710;53.398;-1.514;2022-11-15T15:27:10;12.60;99.90
21104;DHT22;10710;53.398;-1.514;2022-11-15T15:29:37;12.50;99.90
21104;DHT22;10710;53.398;-1.514;2022-11-15T15:32:03;12.40;99.90
21104;DHT22;10710;53.398;-1.514;2022-11-15T15:34:29;12.30;99.90
21104;DHT22;10710;53.398;-1.514;2022-11-15T15:37:24;12.30;99.90
21104;DHT22;10710;53.398;-1.514;2022-11-15T15:39:54;12.30;99.90
21104;DHT22;10710;53.398;-1.514;2022-11-15T15:42:21;12.30;99.90
21104;DHT22;10710;53.398;-1.514;2022-11-15T15:44:48;12.30;99.90
21104;DHT22;10710;53.398;-1.514;2022-11-15T15:47:22;12.20;99.90
21104;DHT22;10710;53.398;-1.514;2022-11-15T15:49:49;12.10;99.90
21104;DHT22;10710;53.398;-1.514;2022-11-15T15:52:16;12.00;99.90
21104;DHT22;10710;53.398;-1.514;2022-11-15T15:54:42;11.90;99.90
21104;DHT22;10710;53.398;-1.514;2022-11-15T15:57:11;11.80;99.90
21104;DHT22;10710;53.398;-1.514;2022-11-15T15:59:37;11.70;99.90
21104;DHT22;10710;53.398;-1.514;2022-11-15T16:02:05;11.70;99.90
21104;DHT22;10710;53.398;-1.514;2022-11-15T16:04:31;11.50;99.90
21104;DHT22;10710;53.398;-1.514;2022-11-15T16:07:01;11.50;99.90
21104;DHT22;10710;53.398;-1.514;2022-11-15T16:09:27;11.40;99.90
21104;DHT22;10710;53.398;-1.514;2022-11-15T16:12:11;11.30;99.90
21104;DHT22;10710;53.398;-1.514;2022-11-15T16:14:37;11.20;99.90
21104;DHT22;10710;53.398;-1.514;2022-11-15T16:17:03;11.20;99.90
21104;DHT22;10710;53.398;-1.514;2022-11-15T16:19:29;11.10;99.90
21104;DHT22;10710;53.398;-1.514;2022-11-15T16:21:55;11.00;99.90
21104;DHT22;10710;53.398;-1.514;2022-11-15T16:24:21;11.00;99.90
21104;DHT22;10710;53.398;-1.514;2022-11-15T16:26:48;10.90;99.90
21104;DHT22;10710;53.398;-1.514;2022-11-15T16:29:15;10.90;99.90
21104;DHT22;10710;53.398;-1.514;2022-11-15T16:31:41;10.90;99.90
21104;DHT22;10710;53.398;-1.514;2022-11-15T16:34:08;10.80;99.90
21104;DHT22;10710;53.398;-1.514;2022-11-15T16:36:35;10.80;99.90
21104;DHT22;10710;53.398;-1.514;2022-11-15T16:39:02;10.70;99.90
21104;DHT22;10710;53.398;-1.514;2022-11-15T16:41:31;10.70;99.90
21104;DHT22;10710;53.398;-1.514;2022-11-15T16:43:57;10.60;99.90
21104;DHT22;10710;53.398;-1.514;2022-11-15T16:46:25;10.60;99.90
21104;DHT22;10710;53.398;-1.514;2022-11-15T16:48:52;10.50;99.90
21104;DHT22;10710;53.398;-1.514;2022-11-15T16:51:22;10.50;99.90
21104;DHT22;10710;53.398;-1.514;2022-11-15T16:53:48;10.40;99.90
21104;DHT22;10710;53.398;-1.514;2022-11-15T16:56:26;10.50;99.90
21104;DHT22;10710;53.398;-1.514;2022-11-15T16:58:56;10.50;99.90
21104;DHT22;10710;53.398;-1.514;2022-11-15T17:01:30;10.40;99.90
21104;DHT22;10710;53.398;-1.514;2022-11-15T17:03:57;10.30;99.90
21104;DHT22;10710;53.398;-1.514;2022-11-15T17:06:24;10.20;99.90
21104;DHT22;10710;53.398;-1.514;2022-11-15T17:08:51;10.20;99.90
21104;DHT22;10710;53.398;-1.514;2022-11-15T17:11:21;10.20;99.90
21104;DHT22;10710;53.398;-1.514;2022-11-15T17:13:48;10.20;99.90
21104;DHT22;10710;53.398;-1.514;2022-11-15T17:16:16;10.10;99.90
21104;DHT22;10710;53.398;-1.514;2022-11-15T17:18:43;10.10;99.90
21104;DHT22;10710;53.398;-1.514;2022-11-15T17:21:14;10.10;99.90
21104;DHT22;10710;53.398;-1.514;2022-11-15T17:23:40;10.00;99.90
21104;DHT22;10710;53.398;-1.514;2022-11-15T17:26:09;10.00;99.90
21104;DHT22;10710;53.398;-1.514;2022-11-15T17:28:36;10.00;99.90
21104;DHT22;10710;53.398;-1.514;2022-11-15T17:31:06;9.90;99.90
21104;DHT22;10710;53.398;-1.514;2022-11-15T17:33:33;9.80;99.90
21104;DHT22;10710;53.398;-1.514;2022-11-15T17:36:02;9.80;99.90
21104;DHT22;10710;53.398;-1.514;2022-11-15T17:38:28;9.70;99.90